sensor_id;sensor_type;location;lat;lon;timestamp;P1;durP1;ratioP1;P2;durP2;ratioP2
38457;SDS011;24239;48.058;10.486;2022-12-07T00:01:39;26.95;;;14.43;;
38457;SDS011;24239;48.058;10.486;2022-12-07T00:04:06;27.33;;;14.60;;
38457;SDS011;24239;48.058;10.486;2022-12-07T00:06:43;23.20;;;14.35;;
38457;SDS011;24239;48.058;10.486;2022-12-07T00:09:15;21.88;;;14.07;;
38457;SDS011;24239;48.058;10.486;2022-12-07T00:11:43;23.40;;;13.40;;
38457;SDS011;24239;48.058;10.486;2022-12-07T00:14:11;21.38;;;13.75;;
38457;SDS011;24239;48.058;10.486;2022-12-07T00:16:38;21.40;;;13.40;;
38457;SDS011;24239;48.058;10.486;2022-12-07T00:19:04;22.25;;;13.48;;
38457;SDS011;24239;48.058;10.486;2022-12-07T00:21:31;20.10;;;13.15;;
38457;SDS011;24239;48.058;10.486;2022-12-07T00:24:01;20.77;;;12.95;;
38457;SDS011;24239;48.058;10.486;2022-12-07T00:26:29;17.35;;;11.98;;
38457;SDS011;24239;48.058;10.486;2022-12-07T00:29:01;16.65;;;12.57;;
38457;SDS011;24239;48.058;10.486;2022-12-07T00:31:29;19.02;;;12.70;;
38457;SDS011;24239;48.058;10.486;2022-12-07T00:34:04;18.38;;;12.68;;
38457;SDS011;24239;48.058;10.486;2022-12-07T00:36:31;17.90;;;11.65;;
38457;SDS011;24239;48.058;10.486;2022-12-07T00:38:57;16.15;;;11.73;;
38457;SDS011;24239;48.058;10.486;2022-12-07T00:41:27;15.27;;;11.52;;
38457;SDS011;24239;48.058;10.486;2022-12-07T00:43:54;15.75;;;11.85;;
38457;SDS011;24239;48.058;10.486;2022-12-07T00:46:20;16.08;;;12.15;;
38457;SDS011;24239;48.058;10.486;2022-12-07T00:48:47;15.63;;;11.18;;
38457;SDS011;24239;48.058;10.486;2022-12-07T00:51:17;14.85;;;11.63;;
38457;SDS011;24239;48.058;10.486;2022-12-07T00:53:45;15.10;;;11.00;;
38457;SDS011;24239;48.058;10.486;2022-12-07T00:56:14;16.40;;;11.45;;
38457;SDS011;24239;48.058;10.486;2022-12-07T00:58:41;14.18;;;11.07;;
38457;SDS011;24239;48.058;10.486;2022-12-07T01:01:08;14.77;;;10.73;;
38457;SDS011;24239;48.058;10.486;2022-12-07T01:03:35;14.00;;;10.93;;
38457;SDS011;24239;48.058;10.486;2022-12-07T01:06:01;13.98;;;11.23;;
38457;SDS011;24239;48.058;10.486;2022-12-07T01:08:28;16.02;;;11.25;;
38457;SDS011;24239;48.058;10.486;2022-12-07T01:11:01;14.75;;;10.98;;
38457;SDS011;24239;48.058;10.486;2022-12-07T01:13:30;13.93;;;10.85;;
38457;SDS011;24239;48.058;10.486;2022-12-07T01:15:57;13.77;;;10.52;;
38457;SDS011;24239;48.058;10.486;2022-12-07T01:18:25;16.40;;;11.20;;
38457;SDS011;24239;48.058;10.486;2022-12-07T01:21:11;14.13;;;10.90;;
38457;SDS011;24239;48.058;10.486;2022-12-07T01:23:39;15.38;;;11.95;;
38457;SDS011;24239;48.058;10.486;2022-12-07T01:26:06;15.65;;;11.85;;
38457;SDS011;24239;48.058;10.486;2022-12-07T01:28:34;13.25;;;10.48;;
38457;SDS011;24239;48.058;10.486;2022-12-07T01:31:02;13.95;;;11.38;;
38457;SDS011;24239;48.058;10.486;2022-12-07T01:33:32;16.95;;;12.48;;
38457;SDS011;24239;48.058;10.486;2022-12-07T01:36:01;20.50;;;13.02;;
38457;SDS011;24239;48.058;10.486;2022-12-07T01:40:58;16.30;;;11.95;;
38457;SDS011;24239;48.058;10.486;2022-12-07T01:43:26;15.63;;;11.70;;
38457;SDS011;24239;48.058;10.486;2022-12-07T01:45:53;16.70;;;12.93;;
38457;SDS011;24239;48.058;10.486;2022-12-07T01:48:22;16.30;;;12.15;;
38457;SDS011;24239;48.058;10.486;2022-12-07T01:51:01;18.25;;;13.40;;
38457;SDS011;24239;48.058;10.486;2022-12-07T01:53:33;17.17;;;12.93;;
38457;SDS011;24239;48.058;10.486;2022-12-07T01:56:01;18.27;;;13.55;;
38457;SDS011;24239;48.058;10.486;2022-12-07T01:58:27;19.42;;;13.20;;
38457;SDS011;24239;48.058;10.486;2022-12-07T02:00:56;23.90;;;14.35;;
38457;SDS011;24239;48.058;10.486;2022-12-07T02:03:32;18.55;;;13.13;;
38457;SDS011;24239;48.058;10.486;2022-12-07T02:06:03;21.70;;;13.85;;
38457;SDS011;24239;48.058;10.486;2022-12-07T02:08:30;17.73;;;13.27;;
38457;SDS011;24239;48.058;10.486;2022-12-07T02:10:57;17.38;;;13.93;;
38457;SDS011;24239;48.058;10.486;2022-12-07T02:13:23;20.33;;;13.27;;
38457;SDS011;24239;48.058;10.486;2022-12-07T02:28:25;24.40;;;16.30;;
38457;SDS011;24239;48.058;10.486;2022-12-07T02:38:46;30.17;;;17.00;;
38457;SDS011;24239;48.058;10.486;2022-12-07T02:41:25;25.40;;;14.95;;
38457;SDS011;24239;48.058;10.486;2022-12-07T02:44:04;26.73;;;15.23;;
38457;SDS011;24239;48.058;10.486;2022-12-07T02:46:38;24.92;;;15.65;;
38457;SDS011;24239;48.058;10.486;2022-12-07T02:49:13;32.70;;;16.02;;
38457;SDS011;24239;48.058;10.486;2022-12-07T02:51:44;29.33;;;17.63;;
38457;SDS011;24239;48.058;10.486;2022-12-07T02:54:16;28.40;;;16.80;;
38457;SDS011;24239;48.058;10.486;2022-12-07T02:59:40;26.90;;;16.38;;
38457;SDS011;24239;48.058;10.486;2022-12-07T03:02:25;25.85;;;16.20;;
38457;SDS011;24239;48.058;10.486;2022-12-07T03:17:17;28.60;;;17.27;;
38457;SDS011;24239;48.058;10.486;2022-12-07T03:19:47;27.08;;;17.73;;
38457;SDS011;24239;48.058;10.486;2022-12-07T03:22:19;30.05;;;17.55;;
38457;SDS011;24239;48.058;10.486;2022-12-07T03:24:55;33.92;;;18.30;;
38457;SDS011;24239;48.058;10.486;2022-12-07T03:27:33;33.50;;;18.35;;
38457;SDS011;24239;48.058;10.486;2022-12-07T03:30:26;28.20;;;17.48;;
38457;SDS011;24239;48.058;10.486;2022-12-07T03:33:14;28.13;;;18.98;;
38457;SDS011;24239;48.058;10.486;2022-12-07T03:36:00;31.35;;;18.15;;
38457;SDS011;24239;48.058;10.486;2022-12-07T03:38:40;30.63;;;18.33;;
38457;SDS011;24239;48.058;10.486;2022-12-07T03:41:16;30.42;;;19.08;;
38457;SDS011;24239;48.058;10.486;2022-12-07T03:43:50;27.52;;;18.17;;
38457;SDS011;24239;48.058;10.486;2022-12-07T03:51:51;27.77;;;18.90;;
38457;SDS011;24239;48.058;10.486;2022-12-07T03:54:34;30.58;;;19.20;;
38457;SDS011;24239;48.058;10.486;2022-12-07T03:57:18;29.30;;;18.38;;
38457;SDS011;24239;48.058;10.486;2022-12-07T03:59:50;33.30;;;19.70;;
38457;SDS011;24239;48.058;10.486;2022-12-07T04:02:17;29.52;;;18.48;;
38457;SDS011;24239;48.058;10.486;2022-12-07T04:04:43;30.20;;;19.92;;
38457;SDS011;24239;48.058;10.486;2022-12-07T04:07:12;30.25;;;19.98;;
38457;SDS011;24239;48.058;10.486;2022-12-07T04:09:41;32.10;;;19.02;;
38457;SDS011;24239;48.058;10.486;2022-12-07T04:12:13;35.08;;;19.67;;
38457;SDS011;24239;48.058;10.486;2022-12-07T04:14:41;31.35;;;19.50;;
38457;SDS011;24239;48.058;10.486;2022-12-07T04:17:07;28.60;;;18.63;;
38457;SDS011;24239;48.058;10.486;2022-12-07T04:19:34;31.42;;;19.98;;
38457;SDS011;24239;48.058;10.486;2022-12-07T04:22:00;32.15;;;20.27;;
38457;SDS011;24239;48.058;10.486;2022-12-07T04:24:28;28.27;;;18.27;;
38457;SDS011;24239;48.058;10.486;2022-12-07T04:43:26;29.15;;;17.75;;
38457;SDS011;24239;48.058;10.486;2022-12-07T04:46:34;29.17;;;18.27;;
38457;SDS011;24239;48.058;10.486;2022-12-07T04:49:00;30.70;;;19.30;;
38457;SDS011;24239;48.058;10.486;2022-12-07T04:51:27;29.52;;;18.60;;
38457;SDS011;24239;48.058;10.486;2022-12-07T04:54:13;32.63;;;20.30;;
38457;SDS011;24239;48.058;10.486;2022-12-07T04:56:40;30.85;;;18.40;;
38457;SDS011;24239;48.058;10.486;2022-12-07T04:59:06;35.03;;;18.95;;
38457;SDS011;24239;48.058;10.486;2022-12-07T05:01:33;30.83;;;18.80;;
38457;SDS011;24239;48.058;10.486;2022-12-07T05:08:25;31.90;;;19.48;;
38457;SDS011;24239;48.058;10.486;2022-12-07T05:11:25;32.40;;;19.20;;
38457;SDS011;24239;48.058;10.486;2022-12-07T05:14:04;33.88;;;20.15;;
38457;SDS011;24239;48.058;10.486;2022-12-07T05:16:53;31.30;;;19.88;;
38457;SDS011;24239;48.058;10.486;2022-12-07T05:19:19;29.58;;;18.50;;
38457;SDS011;24239;48.058;10.486;2022-12-07T05:22:03;31.17;;;18.65;;
38457;SDS011;24239;48.058;10.486;2022-12-07T05:24:31;35.60;;;20.88;;
38457;SDS011;24239;48.058;10.486;2022-12-07T05:26:57;34.55;;;20.38;;
38457;SDS011;24239;48.058;10.486;2022-12-07T05:29:22;30.10;;;18.75;;
38457;SDS011;24239;48.058;10.486;2022-12-07T05:31:48;34.45;;;20.92;;
38457;SDS011;24239;48.058;10.486;2022-12-07T05:34:14;31.85;;;20.15;;
38457;SDS011;24239;48.058;10.486;2022-12-07T05:36:40;30.80;;;19.42;;
38457;SDS011;24239;48.058;10.486;2022-12-07T05:39:06;35.47;;;21.75;;
38457;SDS011;24239;48.058;10.486;2022-12-07T05:41:32;33.55;;;19.95;;
38457;SDS011;24239;48.058;10.486;2022-12-07T05:44:17;31.73;;;19.65;;
38457;SDS011;24239;48.058;10.486;2022-12-07T05:46:43;30.77;;;19.58;;
38457;SDS011;24239;48.058;10.486;2022-12-07T05:49:09;33.55;;;19.23;;
38457;SDS011;24239;48.058;10.486;2022-12-07T05:51:35;33.17;;;19.75;;
38457;SDS011;24239;48.058;10.486;2022-12-07T05:54:03;30.02;;;19.13;;
38457;SDS011;24239;48.058;10.486;2022-12-07T05:56:29;33.97;;;20.13;;
38457;SDS011;24239;48.058;10.486;2022-12-07T05:58:55;32.30;;;19.27;;
38457;SDS011;24239;48.058;10.486;2022-12-07T06:01:39;34.75;;;19.35;;
38457;SDS011;24239;48.058;10.486;2022-12-07T06:04:05;33.42;;;19.42;;
38457;SDS011;24239;48.058;10.486;2022-12-07T06:06:31;29.33;;;18.88;;
38457;SDS011;24239;48.058;10.486;2022-12-07T06:08:57;32.08;;;19.58;;
38457;SDS011;24239;48.058;10.486;2022-12-07T06:11:23;33.47;;;19.67;;
38457;SDS011;24239;48.058;10.486;2022-12-07T06:14:10;33.13;;;19.35;;
38457;SDS011;24239;48.058;10.486;2022-12-07T06:16:36;32.00;;;19.90;;
38457;SDS011;24239;48.058;10.486;2022-12-07T06:19:04;32.72;;;20.33;;
38457;SDS011;24239;48.058;10.486;2022-12-07T06:21:30;36.92;;;20.98;;
38457;SDS011;24239;48.058;10.486;2022-12-07T06:23:56;36.88;;;20.23;;
38457;SDS011;24239;48.058;10.486;2022-12-07T06:26:22;37.55;;;21.33;;
38457;SDS011;24239;48.058;10.486;2022-12-07T06:28:57;35.67;;;19.13;;
38457;SDS011;24239;48.058;10.486;2022-12-07T06:31:26;34.13;;;19.25;;
38457;SDS011;24239;48.058;10.486;2022-12-07T06:33:56;36.13;;;19.90;;
38457;SDS011;24239;48.058;10.486;2022-12-07T06:36:29;32.58;;;18.42;;
38457;SDS011;24239;48.058;10.486;2022-12-07T06:38:56;34.92;;;19.70;;
38457;SDS011;24239;48.058;10.486;2022-12-07T06:41:22;37.28;;;21.35;;
38457;SDS011;24239;48.058;10.486;2022-12-07T06:43:48;39.55;;;20.88;;
38457;SDS011;24239;48.058;10.486;2022-12-07T06:46:15;36.15;;;20.02;;
38457;SDS011;24239;48.058;10.486;2022-12-07T06:48:41;36.47;;;20.05;;
38457;SDS011;24239;48.058;10.486;2022-12-07T06:51:08;44.08;;;22.45;;
38457;SDS011;24239;48.058;10.486;2022-12-07T06:53:34;41.72;;;22.27;;
38457;SDS011;24239;48.058;10.486;2022-12-07T06:56:00;37.17;;;20.95;;
38457;SDS011;24239;48.058;10.486;2022-12-07T06:58:27;35.25;;;20.70;;
38457;SDS011;24239;48.058;10.486;2022-12-07T07:00:52;39.13;;;22.48;;
38457;SDS011;24239;48.058;10.486;2022-12-07T07:03:19;38.80;;;21.13;;
38457;SDS011;24239;48.058;10.486;2022-12-07T07:05:45;40.38;;;21.27;;
38457;SDS011;24239;48.058;10.486;2022-12-07T07:08:14;45.40;;;22.20;;
38457;SDS011;24239;48.058;10.486;2022-12-07T07:10:40;43.03;;;21.02;;
38457;SDS011;24239;48.058;10.486;2022-12-07T07:13:07;41.78;;;22.52;;
38457;SDS011;24239;48.058;10.486;2022-12-07T07:15:33;34.35;;;20.48;;
38457;SDS011;24239;48.058;10.486;2022-12-07T07:18:00;38.13;;;20.88;;
38457;SDS011;24239;48.058;10.486;2022-12-07T07:20:26;41.47;;;21.75;;
38457;SDS011;24239;48.058;10.486;2022-12-07T07:22:56;35.90;;;20.80;;
38457;SDS011;24239;48.058;10.486;2022-12-07T07:25:22;38.20;;;20.88;;
38457;SDS011;24239;48.058;10.486;2022-12-07T07:27:48;34.55;;;20.67;;
38457;SDS011;24239;48.058;10.486;2022-12-07T07:33:57;36.45;;;20.52;;
38457;SDS011;24239;48.058;10.486;2022-12-07T07:40:23;31.88;;;19.52;;
38457;SDS011;24239;48.058;10.486;2022-12-07T07:43:06;34.10;;;19.55;;
38457;SDS011;24239;48.058;10.486;2022-12-07T07:49:35;36.88;;;20.48;;
38457;SDS011;24239;48.058;10.486;2022-12-07T07:52:02;33.88;;;19.40;;
38457;SDS011;24239;48.058;10.486;2022-12-07T08:13:54;35.28;;;20.10;;
38457;SDS011;24239;48.058;10.486;2022-12-07T08:20:39;37.35;;;20.05;;
38457;SDS011;24239;48.058;10.486;2022-12-07T08:30:25;33.45;;;18.13;;
38457;SDS011;24239;48.058;10.486;2022-12-07T08:33:50;32.40;;;18.73;;
38457;SDS011;24239;48.058;10.486;2022-12-07T08:43:18;35.13;;;20.05;;
38457;SDS011;24239;48.058;10.486;2022-12-07T08:49:56;34.53;;;19.88;;
38457;SDS011;24239;48.058;10.486;2022-12-07T09:08:01;25.70;;;17.70;;
38457;SDS011;24239;48.058;10.486;2022-12-07T09:10:49;28.70;;;17.38;;
38457;SDS011;24239;48.058;10.486;2022-12-07T09:26:04;25.05;;;16.70;;
38457;SDS011;24239;48.058;10.486;2022-12-07T09:28:32;28.15;;;17.45;;
38457;SDS011;24239;48.058;10.486;2022-12-07T09:31:07;27.23;;;17.08;;
38457;SDS011;24239;48.058;10.486;2022-12-07T09:36:35;28.58;;;16.83;;
38457;SDS011;24239;48.058;10.486;2022-12-07T09:39:11;27.88;;;17.65;;
38457;SDS011;24239;48.058;10.486;2022-12-07T09:41:48;26.63;;;17.40;;
38457;SDS011;24239;48.058;10.486;2022-12-07T09:44:25;26.13;;;16.60;;
38457;SDS011;24239;48.058;10.486;2022-12-07T09:47:21;27.05;;;17.63;;
38457;SDS011;24239;48.058;10.486;2022-12-07T09:49:47;25.15;;;15.95;;
38457;SDS011;24239;48.058;10.486;2022-12-07T09:52:20;22.15;;;15.60;;
38457;SDS011;24239;48.058;10.486;2022-12-07T09:55:01;25.88;;;16.38;;
38457;SDS011;24239;48.058;10.486;2022-12-07T09:57:31;27.25;;;17.35;;
38457;SDS011;24239;48.058;10.486;2022-12-07T10:03:11;24.20;;;15.52;;
38457;SDS011;24239;48.058;10.486;2022-12-07T10:05:42;26.02;;;16.80;;
38457;SDS011;24239;48.058;10.486;2022-12-07T10:08:12;27.00;;;16.25;;
38457;SDS011;24239;48.058;10.486;2022-12-07T10:10:38;23.77;;;15.15;;
38457;SDS011;24239;48.058;10.486;2022-12-07T10:13:06;25.30;;;16.40;;
38457;SDS011;24239;48.058;10.486;2022-12-07T10:15:48;25.55;;;15.55;;
38457;SDS011;24239;48.058;10.486;2022-12-07T10:24:00;21.08;;;13.35;;
38457;SDS011;24239;48.058;10.486;2022-12-07T10:26:33;22.95;;;13.98;;
38457;SDS011;24239;48.058;10.486;2022-12-07T10:31:39;22.42;;;14.65;;
38457;SDS011;24239;48.058;10.486;2022-12-07T10:36:54;19.05;;;13.70;;
38457;SDS011;24239;48.058;10.486;2022-12-07T10:39:51;20.52;;;13.32;;
38457;SDS011;24239;48.058;10.486;2022-12-07T10:42:20;19.98;;;12.98;;
38457;SDS011;24239;48.058;10.486;2022-12-07T11:01:43;22.80;;;14.98;;
38457;SDS011;24239;48.058;10.486;2022-12-07T11:09:36;26.52;;;16.85;;
38457;SDS011;24239;48.058;10.486;2022-12-07T11:14:46;30.63;;;16.90;;
38457;SDS011;24239;48.058;10.486;2022-12-07T11:18:14;26.92;;;16.67;;
38457;SDS011;24239;48.058;10.486;2022-12-07T11:23:17;22.95;;;14.50;;
38457;SDS011;24239;48.058;10.486;2022-12-07T11:31:18;23.85;;;14.38;;
38457;SDS011;24239;48.058;10.486;2022-12-07T11:41:46;23.70;;;15.30;;
38457;SDS011;24239;48.058;10.486;2022-12-07T11:44:20;25.70;;;15.40;;
38457;SDS011;24239;48.058;10.486;2022-12-07T11:50:25;21.98;;;13.80;;
38457;SDS011;24239;48.058;10.486;2022-12-07T11:52:58;20.45;;;12.82;;
38457;SDS011;24239;48.058;10.486;2022-12-07T12:06:40;13.67;;;10.13;;
38457;SDS011;24239;48.058;10.486;2022-12-07T12:22:38;13.63;;;10.05;;
38457;SDS011;24239;48.058;10.486;2022-12-07T12:25:16;17.48;;;11.50;;
38457;SDS011;24239;48.058;10.486;2022-12-07T12:27:48;22.00;;;11.98;;
38457;SDS011;24239;48.058;10.486;2022-12-07T12:30:39;14.35;;;10.65;;
38457;SDS011;24239;48.058;10.486;2022-12-07T12:33:27;16.02;;;10.95;;
38457;SDS011;24239;48.058;10.486;2022-12-07T13:01:39;10.90;;;7.75;;
38457;SDS011;24239;48.058;10.486;2022-12-07T13:17:12;8.07;;;6.60;;
38457;SDS011;24239;48.058;10.486;2022-12-07T13:20:07;10.52;;;6.93;;
38457;SDS011;24239;48.058;10.486;2022-12-07T13:22:35;10.43;;;7.03;;
38457;SDS011;24239;48.058;10.486;2022-12-07T13:27:37;8.70;;;6.50;;
38457;SDS011;24239;48.058;10.486;2022-12-07T13:30:16;8.80;;;6.65;;
38457;SDS011;24239;48.058;10.486;2022-12-07T13:32:51;8.32;;;6.25;;
38457;SDS011;24239;48.058;10.486;2022-12-07T13:37:56;6.65;;;5.63;;
38457;SDS011;24239;48.058;10.486;2022-12-07T13:40:23;6.57;;;5.60;;
38457;SDS011;24239;48.058;10.486;2022-12-07T13:43:01;7.95;;;6.10;;
38457;SDS011;24239;48.058;10.486;2022-12-07T13:45:30;8.93;;;6.40;;
38457;SDS011;24239;48.058;10.486;2022-12-07T13:48:20;8.38;;;6.18;;
38457;SDS011;24239;48.058;10.486;2022-12-07T13:50:53;12.27;;;7.32;;
38457;SDS011;24239;48.058;10.486;2022-12-07T13:53:21;10.23;;;6.70;;
38457;SDS011;24239;48.058;10.486;2022-12-07T13:55:47;9.75;;;7.03;;
38457;SDS011;24239;48.058;10.486;2022-12-07T13:58:13;9.07;;;7.47;;
38457;SDS011;24239;48.058;10.486;2022-12-07T14:00:40;9.45;;;6.85;;
38457;SDS011;24239;48.058;10.486;2022-12-07T14:05:42;9.82;;;7.80;;
38457;SDS011;24239;48.058;10.486;2022-12-07T14:16:26;12.20;;;8.50;;
38457;SDS011;24239;48.058;10.486;2022-12-07T14:18:51;11.23;;;8.63;;
38457;SDS011;24239;48.058;10.486;2022-12-07T14:21:21;14.05;;;9.63;;
38457;SDS011;24239;48.058;10.486;2022-12-07T14:24:04;11.85;;;8.50;;
38457;SDS011;24239;48.058;10.486;2022-12-07T14:26:47;12.88;;;8.40;;
38457;SDS011;24239;48.058;10.486;2022-12-07T14:31:53;32.72;;;17.80;;
38457;SDS011;24239;48.058;10.486;2022-12-07T14:34:20;16.67;;;10.77;;
38457;SDS011;24239;48.058;10.486;2022-12-07T14:36:47;14.38;;;9.98;;
38457;SDS011;24239;48.058;10.486;2022-12-07T14:39:13;15.45;;;11.75;;
38457;SDS011;24239;48.058;10.486;2022-12-07T14:41:39;21.58;;;13.02;;
38457;SDS011;24239;48.058;10.486;2022-12-07T14:44:20;23.17;;;14.77;;
38457;SDS011;24239;48.058;10.486;2022-12-07T14:46:48;30.48;;;17.70;;
38457;SDS011;24239;48.058;10.486;2022-12-07T14:49:14;41.22;;;23.23;;
38457;SDS011;24239;48.058;10.486;2022-12-07T14:51:40;15.02;;;9.65;;
38457;SDS011;24239;48.058;10.486;2022-12-07T14:54:17;37.08;;;20.08;;
38457;SDS011;24239;48.058;10.486;2022-12-07T14:56:45;29.50;;;16.25;;
38457;SDS011;24239;48.058;10.486;2022-12-07T14:59:14;34.38;;;17.80;;
38457;SDS011;24239;48.058;10.486;2022-12-07T15:01:44;23.25;;;11.82;;
38457;SDS011;24239;48.058;10.486;2022-12-07T15:04:10;171.45;;;71.88;;
38457;SDS011;24239;48.058;10.486;2022-12-07T15:06:36;50.45;;;25.13;;
38457;SDS011;24239;48.058;10.486;2022-12-07T15:09:02;55.30;;;22.35;;
38457;SDS011;24239;48.058;10.486;2022-12-07T15:11:28;70.25;;;31.92;;
38457;SDS011;24239;48.058;10.486;2022-12-07T15:13:53;66.40;;;29.55;;
38457;SDS011;24239;48.058;10.486;2022-12-07T15:16:36;56.80;;;26.92;;
38457;SDS011;24239;48.058;10.486;2022-12-07T15:19:18;25.63;;;15.85;;
38457;SDS011;24239;48.058;10.486;2022-12-07T15:21:49;16.15;;;11.27;;
38457;SDS011;24239;48.058;10.486;2022-12-07T15:24:15;17.13;;;11.13;;
38457;SDS011;24239;48.058;10.486;2022-12-07T15:26:41;16.20;;;10.93;;
38457;SDS011;24239;48.058;10.486;2022-12-07T15:29:07;17.73;;;11.55;;
38457;SDS011;24239;48.058;10.486;2022-12-07T15:31:33;16.60;;;10.98;;
38457;SDS011;24239;48.058;10.486;2022-12-07T15:34:00;20.25;;;12.73;;
38457;SDS011;24239;48.058;10.486;2022-12-07T15:36:27;19.58;;;12.35;;
38457;SDS011;24239;48.058;10.486;2022-12-07T15:38:56;21.77;;;13.30;;
38457;SDS011;24239;48.058;10.486;2022-12-07T15:41:22;18.83;;;12.45;;
38457;SDS011;24239;48.058;10.486;2022-12-07T15:43:48;23.63;;;15.18;;
38457;SDS011;24239;48.058;10.486;2022-12-07T15:46:33;25.20;;;16.70;;
38457;SDS011;24239;48.058;10.486;2022-12-07T15:49:01;25.02;;;17.33;;
38457;SDS011;24239;48.058;10.486;2022-12-07T15:51:29;32.50;;;20.95;;
38457;SDS011;24239;48.058;10.486;2022-12-07T15:53:59;27.80;;;16.67;;
38457;SDS011;24239;48.058;10.486;2022-12-07T15:56:25;24.45;;;15.25;;
38457;SDS011;24239;48.058;10.486;2022-12-07T15:58:51;22.35;;;13.93;;
38457;SDS011;24239;48.058;10.486;2022-12-07T16:01:18;24.42;;;16.08;;
38457;SDS011;24239;48.058;10.486;2022-12-07T16:03:44;26.98;;;17.80;;
38457;SDS011;24239;48.058;10.486;2022-12-07T16:06:11;23.38;;;14.82;;
38457;SDS011;24239;48.058;10.486;2022-12-07T16:08:43;28.90;;;17.73;;
38457;SDS011;24239;48.058;10.486;2022-12-07T16:11:12;27.83;;;16.83;;
38457;SDS011;24239;48.058;10.486;2022-12-07T16:13:39;29.00;;;16.65;;
38457;SDS011;24239;48.058;10.486;2022-12-07T16:16:06;24.95;;;15.48;;
38457;SDS011;24239;48.058;10.486;2022-12-07T16:18:36;23.25;;;15.55;;
38457;SDS011;24239;48.058;10.486;2022-12-07T16:21:04;25.30;;;16.33;;
38457;SDS011;24239;48.058;10.486;2022-12-07T16:23:32;24.23;;;15.85;;
38457;SDS011;24239;48.058;10.486;2022-12-07T16:26:08;26.67;;;16.33;;
38457;SDS011;24239;48.058;10.486;2022-12-07T16:28:41;24.92;;;15.38;;
38457;SDS011;24239;48.058;10.486;2022-12-07T16:31:08;22.77;;;14.18;;
38457;SDS011;24239;48.058;10.486;2022-12-07T16:33:42;23.20;;;15.82;;
38457;SDS011;24239;48.058;10.486;2022-12-07T16:36:10;25.92;;;15.68;;
38457;SDS011;24239;48.058;10.486;2022-12-07T16:38:41;21.08;;;13.77;;
38457;SDS011;24239;48.058;10.486;2022-12-07T16:41:08;21.60;;;13.98;;
38457;SDS011;24239;48.058;10.486;2022-12-07T16:43:34;23.10;;;14.98;;
38457;SDS011;24239;48.058;10.486;2022-12-07T16:46:01;23.02;;;14.45;;
38457;SDS011;24239;48.058;10.486;2022-12-07T16:48:28;18.98;;;12.93;;
38457;SDS011;24239;48.058;10.486;2022-12-07T16:50:53;24.17;;;14.30;;
38457;SDS011;24239;48.058;10.486;2022-12-07T16:53:20;22.60;;;14.43;;
38457;SDS011;24239;48.058;10.486;2022-12-07T16:55:47;22.42;;;13.80;;
38457;SDS011;24239;48.058;10.486;2022-12-07T16:58:14;23.42;;;14.35;;
38457;SDS011;24239;48.058;10.486;2022-12-07T17:00:41;22.90;;;14.20;;
38457;SDS011;24239;48.058;10.486;2022-12-07T17:03:08;22.60;;;13.80;;
38457;SDS011;24239;48.058;10.486;2022-12-07T17:05:38;21.33;;;13.63;;
38457;SDS011;24239;48.058;10.486;2022-12-07T17:08:07;22.70;;;14.57;;
38457;SDS011;24239;48.058;10.486;2022-12-07T17:10:34;23.27;;;14.85;;
38457;SDS011;24239;48.058;10.486;2022-12-07T17:13:03;21.08;;;14.40;;
38457;SDS011;24239;48.058;10.486;2022-12-07T17:15:56;19.92;;;13.07;;
38457;SDS011;24239;48.058;10.486;2022-12-07T17:18:30;22.33;;;15.05;;
38457;SDS011;24239;48.058;10.486;2022-12-07T17:21:04;21.88;;;13.88;;
38457;SDS011;24239;48.058;10.486;2022-12-07T17:23:32;21.25;;;13.68;;
38457;SDS011;24239;48.058;10.486;2022-12-07T17:26:08;24.75;;;15.60;;
38457;SDS011;24239;48.058;10.486;2022-12-07T17:28:36;24.23;;;14.75;;
38457;SDS011;24239;48.058;10.486;2022-12-07T17:31:06;22.80;;;14.90;;
38457;SDS011;24239;48.058;10.486;2022-12-07T17:33:34;22.88;;;14.35;;
38457;SDS011;24239;48.058;10.486;2022-12-07T17:36:00;23.95;;;15.57;;
38457;SDS011;24239;48.058;10.486;2022-12-07T17:38:34;25.05;;;16.17;;
38457;SDS011;24239;48.058;10.486;2022-12-07T17:40:59;29.38;;;17.63;;
38457;SDS011;24239;48.058;10.486;2022-12-07T17:43:32;29.35;;;19.27;;
38457;SDS011;24239;48.058;10.486;2022-12-07T17:45:58;30.13;;;19.27;;
38457;SDS011;24239;48.058;10.486;2022-12-07T17:48:32;30.65;;;19.27;;
38457;SDS011;24239;48.058;10.486;2022-12-07T17:51:01;30.25;;;18.40;;
38457;SDS011;24239;48.058;10.486;2022-12-07T17:53:52;27.83;;;18.20;;
38457;SDS011;24239;48.058;10.486;2022-12-07T17:56:18;30.98;;;18.48;;
38457;SDS011;24239;48.058;10.486;2022-12-07T17:58:44;32.80;;;18.88;;
38457;SDS011;24239;48.058;10.486;2022-12-07T18:01:12;32.92;;;18.80;;
38457;SDS011;24239;48.058;10.486;2022-12-07T18:03:38;38.58;;;23.33;;
38457;SDS011;24239;48.058;10.486;2022-12-07T18:06:04;44.85;;;25.63;;
38457;SDS011;24239;48.058;10.486;2022-12-07T18:08:33;40.15;;;24.23;;
38457;SDS011;24239;48.058;10.486;2022-12-07T18:11:01;43.33;;;26.33;;
38457;SDS011;24239;48.058;10.486;2022-12-07T18:13:27;45.25;;;26.55;;
38457;SDS011;24239;48.058;10.486;2022-12-07T18:16:35;42.60;;;26.45;;
38457;SDS011;24239;48.058;10.486;2022-12-07T18:18:58;46.97;;;26.80;;
38457;SDS011;24239;48.058;10.486;2022-12-07T18:21:26;50.30;;;31.02;;
38457;SDS011;24239;48.058;10.486;2022-12-07T18:23:55;55.78;;;33.75;;
38457;SDS011;24239;48.058;10.486;2022-12-07T18:26:23;68.65;;;39.42;;
38457;SDS011;24239;48.058;10.486;2022-12-07T18:28:52;75.20;;;41.65;;
38457;SDS011;24239;48.058;10.486;2022-12-07T18:31:18;83.65;;;44.45;;
38457;SDS011;24239;48.058;10.486;2022-12-07T18:33:45;73.32;;;42.35;;
38457;SDS011;24239;48.058;10.486;2022-12-07T18:36:12;73.97;;;40.97;;
38457;SDS011;24239;48.058;10.486;2022-12-07T18:38:39;77.68;;;41.28;;
38457;SDS011;24239;48.058;10.486;2022-12-07T18:41:06;65.80;;;36.30;;
38457;SDS011;24239;48.058;10.486;2022-12-07T18:43:33;63.95;;;36.15;;
38457;SDS011;24239;48.058;10.486;2022-12-07T18:45:59;62.20;;;35.40;;
38457;SDS011;24239;48.058;10.486;2022-12-07T18:48:25;59.08;;;33.40;;
38457;SDS011;24239;48.058;10.486;2022-12-07T18:51:00;65.80;;;35.22;;
38457;SDS011;24239;48.058;10.486;2022-12-07T18:53:27;58.25;;;34.63;;
38457;SDS011;24239;48.058;10.486;2022-12-07T18:56:01;65.20;;;36.15;;
38457;SDS011;24239;48.058;10.486;2022-12-07T18:58:47;67.00;;;38.25;;
38457;SDS011;24239;48.058;10.486;2022-12-07T19:01:32;65.20;;;37.83;;
38457;SDS011;24239;48.058;10.486;2022-12-07T19:03:59;60.10;;;34.30;;
38457;SDS011;24239;48.058;10.486;2022-12-07T19:06:25;61.38;;;35.75;;
38457;SDS011;24239;48.058;10.486;2022-12-07T19:08:51;58.17;;;35.08;;
38457;SDS011;24239;48.058;10.486;2022-12-07T19:11:18;62.85;;;36.83;;
38457;SDS011;24239;48.058;10.486;2022-12-07T19:14:07;63.00;;;35.50;;
38457;SDS011;24239;48.058;10.486;2022-12-07T19:16:33;60.20;;;36.20;;
38457;SDS011;24239;48.058;10.486;2022-12-07T19:18:59;56.47;;;35.42;;
38457;SDS011;24239;48.058;10.486;2022-12-07T19:21:25;67.05;;;39.05;;
38457;SDS011;24239;48.058;10.486;2022-12-07T19:23:51;65.05;;;38.38;;